Time;durP1;ratioP1;P1;durP2;ratioP2;P2;SDS_P1;SDS_P2;PMS_P1;PMS_P2;Temp;Humidity;BMP_temperature;BMP_pressure;BME280_temperature;BME280_humidity;BME280_pressure;Samples;Min_cycle;Max_cycle;Signal;HPM_P1;HPM_P2
2022/04/04 00:00:06;;;;;;;4.20;3.47;;;2.80;99.90;;;;;;5003823;28;20104;-69
2022/04/04 00:02:32;;;;;;;8.55;3.75;;;2.80;99.90;;;;;;4999076;28;20049;-69
2022/04/04 00:04:57;;;;;;;6.10;3.40;;;2.70;99.90;;;;;;5019596;28;20496;-69
2022/04/04 00:07:23;;;;;;;3.92;2.90;;;2.70;99.90;;;;;;5020737;28;20051;-68
2022/04/04 00:09:49;;;;;;;5.82;3.35;;;2.80;99.90;;;;;;5004336;28;20065;-68
2022/04/04 00:12:16;;;;;;;3.38;3.00;;;2.70;99.90;;;;;;4993176;28;20516;-68
2022/04/04 00:14:41;;;;;;;6.60;3.22;;;2.70;99.90;;;;;;5023878;28;20037;-68
2022/04/04 00:17:07;;;;;;;6.93;3.88;;;2.70;99.90;;;;;;5003029;28;20042;-68
2022/04/04 00:19:33;;;;;;;6.20;3.55;;;2.80;99.90;;;;;;4998344;28;20086;-69
2022/04/04 00:21:59;;;;;;;5.72;3.60;;;2.70;99.90;;;;;;5003578;28;20045;-69
2022/04/04 00:24:24;;;;;;;5.10;3.75;;;2.80;99.90;;;;;;4998712;28;20034;-69
2022/04/04 00:26:50;;;;;;;6.70;3.40;;;2.70;99.90;;;;;;5021458;28;20150;-69
2022/04/04 00:29:16;;;;;;;6.80;3.70;;;2.70;99.90;;;;;;5005035;28;20153;-69
2022/04/04 00:31:42;;;;;;;4.43;3.00;;;2.70;99.90;;;;;;5007524;28;20049;-69
2022/04/04 00:34:07;;;;;;;7.13;3.72;;;2.70;99.90;;;;;;5016933;28;20470;-69
2022/04/04 00:36:33;;;;;;;8.25;4.00;;;2.80;99.90;;;;;;5000799;28;20038;-68
2022/04/04 00:38:59;;;;;;;7.20;3.50;;;2.70;99.90;;;;;;4999837;28;20052;-68
2022/04/04 00:41:25;;;;;;;5.63;3.95;;;2.80;99.90;;;;;;5001691;28;20061;-68
2022/04/04 00:43:54;;;;;;;6.57;3.67;;;2.80;99.90;;;;;;5000056;28;20508;-68
2022/04/04 00:46:20;;;;;;;7.50;3.17;;;2.70;99.90;;;;;;5001475;28;20045;-68
2022/04/04 00:48:46;;;;;;;4.50;3.50;;;2.80;99.90;;;;;;5024061;28;20382;-69
2022/04/04 00:51:12;;;;;;;6.35;3.90;;;2.80;99.90;;;;;;5009730;28;20121;-68
2022/04/04 00:53:38;;;;;;;4.10;3.55;;;2.80;99.90;;;;;;5006022;28;20060;-68
2022/04/04 00:56:04;;;;;;;6.65;4.10;;;2.90;99.90;;;;;;5003673;28;20046;-68
2022/04/04 00:58:30;;;;;;;9.18;4.40;;;2.90;99.90;;;;;;5013778;28;20132;-69
2022/04/04 01:00:56;;;;;;;6.68;3.80;;;2.90;99.90;;;;;;5003666;28;20048;-69
2022/04/04 01:03:22;;;;;;;5.22;4.03;;;3.00;99.90;;;;;;5007287;28;20048;-68
2022/04/04 01:05:48;;;;;;;6.47;4.22;;;3.10;99.90;;;;;;5006229;28;20033;-68
2022/04/04 01:08:15;;;;;;;7.47;5.03;;;3.10;99.90;;;;;;5007481;28;20049;-68
2022/04/04 01:10:42;;;;;;;8.85;4.60;;;3.20;99.90;;;;;;5006006;28;20041;-68
2022/04/04 01:13:10;;;;;;;6.30;4.75;;;3.30;99.90;;;;;;5021839;28;20038;-68
2022/04/04 01:15:36;;;;;;;10.55;5.97;;;3.30;99.90;;;;;;5009239;28;20047;-69
2022/04/04 01:18:04;;;;;;;11.35;6.30;;;3.40;99.90;;;;;;5011917;28;20061;-68
2022/04/04 01:20:29;;;;;;;7.22;6.43;;;3.40;99.90;;;;;;4998767;28;20104;-68
2022/04/04 01:22:55;;;;;;;14.15;7.43;;;3.50;99.90;;;;;;5003337;28;20049;-67
2022/04/04 01:25:26;;;;;;;9.70;7.85;;;3.50;99.90;;;;;;5030742;28;20033;-67
2022/04/04 01:27:53;;;;;;;11.52;7.97;;;3.60;99.90;;;;;;5021153;28;20121;-67
2022/04/04 01:30:19;;;;;;;12.02;8.88;;;3.60;99.90;;;;;;5016691;28;20041;-67
2022/04/04 01:32:45;;;;;;;11.40;7.43;;;3.70;99.90;;;;;;5022869;28;20038;-67
2022/04/04 01:35:11;;;;;;;9.85;8.32;;;3.70;99.90;;;;;;5024032;28;20092;-67
2022/04/04 01:37:37;;;;;;;8.80;7.90;;;3.70;99.90;;;;;;5022993;28;20049;-67
2022/04/04 01:40:06;;;;;;;9.75;8.38;;;3.80;99.90;;;;;;5017562;28;20052;-67
2022/04/04 01:42:32;;;;;;;11.85;8.93;;;3.80;99.90;;;;;;5009560;28;20057;-67
2022/04/04 01:44:58;;;;;;;9.23;7.82;;;3.80;99.90;;;;;;5002605;28;20059;-67
2022/04/04 01:47:24;;;;;;;9.40;8.02;;;3.80;99.90;;;;;;4992095;28;20384;-67
2022/04/04 01:49:49;;;;;;;9.35;8.35;;;3.80;99.90;;;;;;5004144;28;20083;-67
2022/04/04 01:52:15;;;;;;;10.10;7.90;;;3.80;99.90;;;;;;5023029;28;20087;-67
2022/04/04 01:54:41;;;;;;;10.23;7.95;;;3.80;99.90;;;;;;5008765;28;20142;-67
2022/04/04 01:57:06;;;;;;;12.68;8.18;;;3.90;99.90;;;;;;5026731;28;20030;-68
2022/04/04 01:59:32;;;;;;;11.98;8.68;;;3.80;99.90;;;;;;5025988;28;20445;-68
2022/04/04 02:01:58;;;;;;;8.25;7.45;;;3.80;99.90;;;;;;5021047;28;20092;-68
2022/04/04 02:04:23;;;;;;;9.63;7.97;;;3.90;99.90;;;;;;5028011;28;20041;-68
2022/04/04 02:06:49;;;;;;;10.70;7.93;;;3.80;99.90;;;;;;5023334;28;20037;-68
2022/04/04 02:09:15;;;;;;;8.50;7.40;;;3.90;99.90;;;;;;5027409;28;20037;-68
2022/04/04 02:11:42;;;;;;;9.85;8.38;;;4.00;99.90;;;;;;5024219;28;20030;-68
2022/04/04 02:14:08;;;;;;;9.20;7.60;;;4.00;99.90;;;;;;5026067;28;20038;-68
2022/04/04 02:16:34;;;;;;;14.13;8.90;;;4.00;99.90;;;;;;5000885;28;20060;-68
2022/04/04 02:18:59;;;;;;;9.65;7.82;;;4.00;99.90;;;;;;5023179;28;20386;-68
2022/04/04 02:21:26;;;;;;;12.70;8.50;;;4.00;99.90;;;;;;5017141;28;20095;-66
2022/04/04 02:23:52;;;;;;;10.68;7.85;;;4.00;99.90;;;;;;4997757;28;20521;-67
2022/04/04 02:26:18;;;;;;;13.13;9.32;;;4.10;99.90;;;;;;5005150;28;20053;-67
2022/04/04 02:28:44;;;;;;;11.32;9.02;;;4.10;99.90;;;;;;4999636;28;20382;-67
2022/04/04 02:31:10;;;;;;;10.40;8.27;;;4.10;99.90;;;;;;5012333;28;20052;-68
2022/04/04 02:33:36;;;;;;;12.05;8.10;;;4.10;99.90;;;;;;5003742;28;20044;-68
2022/04/04 02:36:02;;;;;;;10.73;9.23;;;4.10;99.90;;;;;;4998606;28;20176;-68
2022/04/04 02:38:28;;;;;;;13.48;8.63;;;4.10;99.90;;;;;;4999200;28;20038;-68
2022/04/04 02:40:55;;;;;;;13.98;9.50;;;4.20;99.90;;;;;;5007439;28;20397;-68
2022/04/04 02:43:21;;;;;;;12.50;9.25;;;4.20;99.90;;;;;;5002615;28;20065;-67
2022/04/04 02:45:47;;;;;;;14.45;9.80;;;4.20;99.90;;;;;;5026174;28;20132;-68
2022/04/04 02:48:15;;;;;;;14.90;10.60;;;4.20;99.90;;;;;;5022926;28;20160;-68
2022/04/04 02:50:41;;;;;;;13.02;9.20;;;4.20;99.90;;;;;;5007235;28;20042;-68
2022/04/04 02:53:07;;;;;;;12.13;9.70;;;4.30;99.90;;;;;;5024356;28;20117;-68
2022/04/04 02:58:17;;;;;;;13.23;10.02;;;4.30;99.90;;;;;;5022986;28;20051;-68
2022/04/04 03:00:42;;;;;;;13.27;9.93;;;4.40;99.90;;;;;;5006232;28;20128;-68
2022/04/04 03:03:09;;;;;;;13.55;10.02;;;4.30;99.90;;;;;;5022097;28;20508;-68
2022/04/04 03:05:35;;;;;;;13.70;10.13;;;4.40;99.90;;;;;;5003939;28;20033;-68
2022/04/04 03:08:01;;;;;;;11.50;9.05;;;4.40;99.90;;;;;;5020795;28;20046;-68
2022/04/04 03:10:27;;;;;;;14.63;9.88;;;4.40;99.90;;;;;;5020799;28;20114;-68
2022/04/04 03:12:52;;;;;;;11.98;8.98;;;4.40;99.90;;;;;;5002507;28;20366;-68
2022/04/04 03:15:21;;;;;;;14.10;9.65;;;4.50;99.90;;;;;;5001437;28;20532;-68
2022/04/04 03:17:51;;;;;;;11.45;8.90;;;4.50;99.90;;;;;;5001086;28;20128;-68
2022/04/04 03:20:19;;;;;;;14.70;10.70;;;4.50;99.90;;;;;;4996861;28;20056;-68
2022/04/04 03:22:48;;;;;;;16.10;11.05;;;4.50;99.90;;;;;;5021979;28;20047;-67
2022/04/04 03:25:17;;;;;;;14.90;10.30;;;4.50;99.90;;;;;;5004482;28;20045;-68
2022/04/04 03:27:45;;;;;;;10.27;8.45;;;4.50;99.90;;;;;;5022359;28;20069;-67
2022/04/04 03:30:13;;;;;;;13.70;10.35;;;4.60;99.90;;;;;;5015151;28;20042;-67
2022/04/04 03:32:39;;;;;;;14.32;9.55;;;4.60;99.90;;;;;;5023471;28;20055;-67
2022/04/04 03:35:06;;;;;;;12.65;9.70;;;4.60;99.90;;;;;;5019631;28;20353;-67
2022/04/04 03:37:33;;;;;;;14.00;10.73;;;4.60;99.90;;;;;;4989786;28;20133;-68
2022/04/04 03:39:59;;;;;;;14.93;10.68;;;4.60;99.90;;;;;;5000796;28;20045;-67
2022/04/04 03:42:25;;;;;;;16.25;10.20;;;4.60;99.90;;;;;;5001543;28;20460;-67
2022/04/04 03:44:51;;;;;;;18.30;10.70;;;4.70;99.90;;;;;;5000373;28;20050;-68
2022/04/04 03:47:17;;;;;;;12.85;9.75;;;4.70;99.90;;;;;;4999566;28;20356;-67
2022/04/04 03:49:42;;;;;;;13.15;9.90;;;4.70;99.90;;;;;;5000461;28;20046;-68
2022/04/04 03:52:09;;;;;;;16.58;9.85;;;4.80;99.90;;;;;;5001803;28;20070;-68
2022/04/04 03:54:35;;;;;;;12.40;9.43;;;4.80;99.90;;;;;;4998332;28;20042;-68
2022/04/04 03:57:02;;;;;;;14.63;10.40;;;4.80;99.90;;;;;;4999482;28;20601;-67
2022/04/04 03:59:28;;;;;;;11.68;9.18;;;4.80;99.90;;;;;;4996728;28;20053;-68
2022/04/04 04:01:54;;;;;;;12.73;9.35;;;4.80;99.90;;;;;;4998618;28;20034;-68
2022/04/04 04:04:20;;;;;;;11.57;8.77;;;4.90;99.90;;;;;;5000411;28;20102;-68
2022/04/04 04:06:45;;;;;;;12.65;9.73;;;4.80;99.90;;;;;;5005986;28;20099;-68
2022/04/04 04:09:12;;;;;;;14.95;9.75;;;4.90;99.90;;;;;;4997644;28;20042;-68
2022/04/04 04:11:37;;;;;;;13.50;9.65;;;5.00;99.90;;;;;;5000068;28;20042;-68
2022/04/04 04:14:03;;;;;;;14.40;9.45;;;4.90;99.90;;;;;;5006050;28;20045;-67
2022/04/04 04:16:29;;;;;;;12.75;8.80;;;5.00;99.90;;;;;;4998495;28;20133;-68
2022/04/04 04:18:55;;;;;;;12.98;9.55;;;5.00;99.90;;;;;;5004274;28;20594;-68
2022/04/04 04:21:21;;;;;;;11.88;9.27;;;5.10;99.90;;;;;;5001723;28;20065;-68
2022/04/04 04:23:47;;;;;;;12.30;8.05;;;5.00;99.90;;;;;;5004256;28;20621;-68
2022/04/04 04:26:16;;;;;;;13.95;8.35;;;5.00;99.90;;;;;;4997018;28;20532;-68
2022/04/04 04:28:44;;;;;;;14.73;10.05;;;5.00;99.90;;;;;;5006805;28;20486;-68
2022/04/04 04:31:10;;;;;;;14.95;9.45;;;5.00;99.90;;;;;;5007243;28;20478;-68
2022/04/04 04:33:36;;;;;;;13.25;9.73;;;5.00;99.90;;;;;;5003870;28;20038;-68
2022/04/04 04:36:02;;;;;;;15.23;10.63;;;5.00;99.90;;;;;;5005915;28;20042;-68
2022/04/04 04:38:30;;;;;;;13.73;10.43;;;5.00;99.90;;;;;;5002854;28;20037;-68
2022/04/04 04:40:56;;;;;;;16.52;9.93;;;5.00;99.90;;;;;;5005217;28;20054;-68
2022/04/04 04:43:22;;;;;;;13.57;9.75;;;5.00;99.90;;;;;;5023443;28;20033;-68
2022/04/04 04:45:48;;;;;;;14.00;10.40;;;5.00;99.90;;;;;;5007415;28;20079;-68
2022/04/04 04:48:14;;;;;;;12.65;11.13;;;5.00;99.90;;;;;;5027225;28;20029;-68
2022/04/04 04:50:40;;;;;;;13.38;10.13;;;4.90;99.90;;;;;;5024923;28;20041;-68
2022/04/04 04:53:06;;;;;;;14.15;9.95;;;4.90;99.90;;;;;;5022250;28;20462;-68
2022/04/04 04:55:32;;;;;;;15.52;10.48;;;4.90;99.90;;;;;;5014168;28;20065;-67
2022/04/04 04:57:58;;;;;;;13.10;9.63;;;4.90;99.90;;;;;;5023882;28;20444;-67
2022/04/04 05:00:26;;;;;;;13.75;9.48;;;4.90;99.90;;;;;;5023365;28;20120;-68
2022/04/04 05:03:24;;;;;;;16.90;10.45;;;5.00;99.90;;;;;;4988397;28;20045;-68
2022/04/04 05:05:39;;;;;;;14.20;10.45;;;5.00;99.90;;;;;;5020437;28;20049;-68
2022/04/04 05:08:06;;;;;;;12.50;9.80;;;5.00;99.90;;;;;;5020581;28;20040;-68
2022/04/04 05:10:31;;;;;;;12.60;10.20;;;5.00;99.90;;;;;;5008322;28;20404;-68
2022/04/04 05:12:57;;;;;;;13.75;9.93;;;5.00;99.90;;;;;;5007363;28;20042;-68
2022/04/04 05:15:23;;;;;;;16.90;10.82;;;5.10;99.90;;;;;;5020807;28;20037;-68
2022/04/04 05:17:50;;;;;;;18.23;12.13;;;5.00;99.90;;;;;;5021336;28;20121;-68
2022/04/04 05:20:16;;;;;;;15.80;10.45;;;5.00;99.90;;;;;;5007050;28;20104;-68
2022/04/04 05:22:41;;;;;;;12.70;9.32;;;5.10;99.90;;;;;;5024996;28;21994;-68
2022/04/04 05:25:07;;;;;;;13.40;10.13;;;5.10;99.90;;;;;;5006206;28;20358;-68
2022/04/04 05:27:33;;;;;;;14.30;10.10;;;5.10;99.90;;;;;;5003357;28;20046;-67
2022/04/04 05:30:01;;;;;;;11.88;9.77;;;5.10;99.90;;;;;;5027174;28;20038;-67
2022/04/04 05:32:29;;;;;;;11.88;8.85;;;5.20;99.90;;;;;;5005023;28;20107;-68
2022/04/04 05:34:55;;;;;;;13.50;9.43;;;5.20;99.90;;;;;;5023188;28;20049;-68
2022/04/04 05:37:20;;;;;;;10.32;9.23;;;5.20;99.90;;;;;;5025171;28;20042;-66
2022/04/04 05:39:46;;;;;;;11.30;8.82;;;5.20;99.90;;;;;;5003242;28;20549;-67
2022/04/04 05:42:12;;;;;;;16.55;9.85;;;5.30;99.90;;;;;;5023027;28;20057;-67
2022/04/04 05:44:37;;;;;;;12.43;9.27;;;5.30;99.90;;;;;;5018415;28;20042;-68
2022/04/04 05:47:04;;;;;;;13.60;8.73;;;5.30;99.90;;;;;;5002497;28;20088;-68
2022/04/04 05:49:30;;;;;;;10.77;8.18;;;5.30;99.90;;;;;;5024553;28;20041;-67
2022/04/04 05:51:56;;;;;;;12.27;9.43;;;5.30;99.90;;;;;;5003500;28;20438;-67
2022/04/04 05:54:21;;;;;;;11.73;10.15;;;5.30;99.90;;;;;;5026103;28;20500;-67
2022/04/04 05:56:47;;;;;;;13.05;9.27;;;5.30;99.90;;;;;;5020840;28;20053;-67
2022/04/04 05:59:13;;;;;;;12.60;8.70;;;5.30;99.90;;;;;;5000367;28;20085;-66
2022/04/04 06:01:40;;;;;;;12.40;9.35;;;5.30;99.90;;;;;;5020715;28;20088;-67
2022/04/04 06:04:06;;;;;;;11.18;9.75;;;5.30;99.90;;;;;;5002725;28;20073;-67
2022/04/04 06:06:32;;;;;;;13.45;10.27;;;5.20;99.90;;;;;;5026465;28;20068;-67
2022/04/04 06:08:57;;;;;;;13.02;9.63;;;5.20;99.90;;;;;;5001974;28;20048;-67
2022/04/04 06:11:24;;;;;;;12.07;9.45;;;5.20;99.90;;;;;;5020310;28;20437;-68
2022/04/04 06:13:50;;;;;;;11.15;8.93;;;5.20;99.90;;;;;;5020136;28;20047;-67
2022/04/04 06:16:15;;;;;;;11.80;8.88;;;5.20;99.90;;;;;;5003792;28;20049;-67
2022/04/04 06:18:41;;;;;;;13.30;8.73;;;5.20;99.90;;;;;;5002102;28;20095;-67
2022/04/04 06:21:07;;;;;;;11.35;8.93;;;5.20;99.90;;;;;;5005108;28;20446;-68
2022/04/04 06:23:33;;;;;;;14.45;9.18;;;5.10;99.90;;;;;;5003665;28;20052;-68
2022/04/04 06:26:05;;;;;;;12.13;8.95;;;5.10;99.90;;;;;;5021257;28;20126;-68
2022/04/04 06:28:31;;;;;;;10.57;9.20;;;5.10;99.90;;;;;;5005540;28;20045;-68
2022/04/04 06:30:58;;;;;;;13.20;9.10;;;5.10;99.90;;;;;;5001815;28;20453;-68
2022/04/04 06:33:25;;;;;;;13.77;9.45;;;5.10;99.90;;;;;;5025352;28;20037;-69
2022/04/04 06:35:51;;;;;;;13.65;9.35;;;5.00;99.90;;;;;;5019727;28;20081;-69
2022/04/04 06:38:18;;;;;;;10.63;9.30;;;5.10;99.90;;;;;;5006849;28;20464;-69
2022/04/04 06:40:49;;;;;;;11.60;9.20;;;5.00;99.90;;;;;;5005196;28;20450;-69
2022/04/04 06:43:17;;;;;;;16.33;9.70;;;5.00;99.90;;;;;;4999981;28;20058;-69
2022/04/04 06:45:44;;;;;;;14.45;9.95;;;4.90;99.90;;;;;;4997568;28;20050;-69
2022/04/04 06:48:10;;;;;;;12.50;10.50;;;4.90;99.90;;;;;;5005397;28;20038;-69
2022/04/04 06:50:36;;;;;;;14.00;9.75;;;4.90;99.90;;;;;;5003978;28;20072;-69
2022/04/04 06:53:02;;;;;;;13.80;10.45;;;4.90;99.90;;;;;;4998069;28;20053;-68
2022/04/04 06:55:28;;;;;;;16.05;10.75;;;4.90;99.90;;;;;;4996976;28;20037;-69
2022/04/04 06:57:55;;;;;;;16.40;10.80;;;4.90;99.90;;;;;;4999749;28;20120;-70
2022/04/04 07:00:23;;;;;;;20.48;10.18;;;4.90;99.90;;;;;;4996322;28;20093;-68
2022/04/04 07:02:49;;;;;;;10.77;9.45;;;4.90;99.90;;;;;;5018459;28;20050;-68
2022/04/04 07:05:15;;;;;;;15.60;10.45;;;4.90;99.90;;;;;;4997907;28;20073;-68
2022/04/04 07:07:41;;;;;;;12.57;10.02;;;4.90;99.90;;;;;;5018074;28;20040;-69
2022/04/04 07:10:08;;;;;;;16.02;11.32;;;5.00;99.90;;;;;;5001738;28;20041;-69
2022/04/04 07:12:39;;;;;;;15.40;10.73;;;5.00;99.90;;;;;;5003716;28;20545;-69
2022/04/04 07:15:08;;;;;;;14.25;11.90;;;5.00;99.90;;;;;;5004668;28;20160;-68
2022/04/04 07:17:34;;;;;;;14.27;11.15;;;5.00;99.90;;;;;;4986148;28;20493;-69
2022/04/04 07:19:59;;;;;;;15.80;10.63;;;5.00;99.90;;;;;;5000624;28;20061;-68
2022/04/04 07:22:25;;;;;;;16.05;10.95;;;5.10;99.90;;;;;;5003206;28;20127;-69
2022/04/04 07:24:51;;;;;;;14.40;11.07;;;5.10;99.90;;;;;;5007478;28;20093;-68
2022/04/04 07:27:16;;;;;;;16.40;12.25;;;5.10;99.90;;;;;;5023456;28;20037;-69
2022/04/04 07:29:42;;;;;;;10.27;9.18;;;5.10;99.90;;;;;;5001694;28;20062;-69
2022/04/04 07:32:09;;;;;;;16.48;12.25;;;5.10;99.90;;;;;;5007722;28;20083;-69
2022/04/04 07:34:37;;;;;;;18.27;12.93;;;5.20;99.90;;;;;;5022123;28;20037;-69
2022/04/04 07:37:03;;;;;;;18.30;11.05;;;5.10;99.90;;;;;;5004299;28;20068;-69
2022/04/04 07:39:28;;;;;;;16.38;12.40;;;5.20;99.90;;;;;;5000802;28;20408;-69
2022/04/04 07:41:55;;;;;;;15.25;11.30;;;5.20;99.90;;;;;;4982967;28;20493;-69
2022/04/04 07:44:21;;;;;;;16.92;12.88;;;5.20;99.90;;;;;;5017385;28;20394;-68
2022/04/04 07:46:46;;;;;;;21.45;12.80;;;5.20;99.90;;;;;;5000101;28;20046;-69
2022/04/04 07:49:12;;;;;;;17.05;13.55;;;5.20;99.90;;;;;;4997760;28;20472;-68
2022/04/04 07:51:38;;;;;;;16.23;13.57;;;5.20;99.90;;;;;;5007750;28;20045;-69
2022/04/04 07:54:04;;;;;;;18.80;13.60;;;5.20;99.90;;;;;;4988136;28;20085;-69
2022/04/04 07:56:30;;;;;;;17.27;14.75;;;5.10;99.90;;;;;;5000270;28;20045;-69
2022/04/04 07:58:56;;;;;;;18.45;13.52;;;5.00;99.90;;;;;;5002864;28;20046;-69
2022/04/04 08:01:21;;;;;;;18.27;14.23;;;5.10;99.90;;;;;;5002077;28;20037;-69
2022/04/04 08:03:47;;;;;;;18.15;14.10;;;5.20;99.90;;;;;;4999850;28;20398;-69
2022/04/04 08:06:13;;;;;;;16.80;14.15;;;5.10;99.90;;;;;;5016921;28;20077;-69
2022/04/04 08:08:38;;;;;;;16.25;14.55;;;5.10;99.90;;;;;;5003514;28;20049;-68
2022/04/04 08:11:05;;;;;;;18.65;14.40;;;5.20;99.90;;;;;;5004259;28;20045;-68
2022/04/04 08:13:31;;;;;;;19.48;15.30;;;5.20;99.90;;;;;;5004096;28;20033;-69
2022/04/04 08:15:57;;;;;;;21.63;15.00;;;5.30;99.90;;;;;;5017971;28;20139;-69
2022/04/04 08:18:23;;;;;;;14.93;13.30;;;5.10;99.90;;;;;;5006741;28;20046;-69
2022/04/04 08:20:49;;;;;;;18.27;14.40;;;5.30;99.90;;;;;;5003201;28;20067;-69
2022/04/04 08:23:15;;;;;;;15.50;13.13;;;5.30;99.90;;;;;;5000608;28;20053;-67
2022/04/04 08:25:40;;;;;;;15.90;12.68;;;5.30;99.90;;;;;;5003381;28;20037;-69
2022/04/04 08:28:06;;;;;;;17.17;12.77;;;5.30;99.90;;;;;;5001752;28;20505;-68
2022/04/04 08:30:32;;;;;;;18.15;13.95;;;5.40;99.90;;;;;;4998810;28;20040;-69
2022/04/04 08:32:58;;;;;;;16.33;13.73;;;5.40;99.90;;;;;;5013889;28;20476;-68
2022/04/04 08:35:24;;;;;;;17.55;11.82;;;5.40;99.90;;;;;;4987928;28;20037;-68
2022/04/04 08:37:50;;;;;;;13.43;11.82;;;5.40;99.90;;;;;;5016695;28;20049;-68
2022/04/04 08:40:18;;;;;;;14.95;11.00;;;5.40;99.90;;;;;;4999385;28;20111;-68
2022/04/04 08:42:45;;;;;;;13.73;10.25;;;5.40;99.90;;;;;;4999479;28;20588;-69
2022/04/04 08:45:11;;;;;;;12.45;9.48;;;5.50;99.90;;;;;;4989314;28;20057;-68
2022/04/04 08:47:39;;;;;;;11.35;9.40;;;5.40;99.90;;;;;;5013338;28;20040;-68
2022/04/04 08:50:07;;;;;;;17.30;11.25;;;5.50;99.90;;;;;;5019692;28;20401;-68
2022/04/04 08:52:33;;;;;;;11.27;8.77;;;5.50;99.90;;;;;;5019715;28;20045;-68
2022/04/04 08:54:59;;;;;;;9.88;8.50;;;5.40;99.90;;;;;;5007472;28;20045;-69
2022/04/04 08:57:25;;;;;;;10.77;7.78;;;5.50;99.90;;;;;;5025238;28;20052;-68
2022/04/04 08:59:50;;;;;;;12.82;7.55;;;5.50;99.90;;;;;;5007002;28;20061;-68
2022/04/04 09:02:16;;;;;;;8.23;6.38;;;5.60;99.90;;;;;;5004411;28;20401;-67
2022/04/04 09:04:42;;;;;;;10.35;6.90;;;5.60;99.90;;;;;;5025065;28;20045;-67
2022/04/04 09:07:09;;;;;;;8.45;6.72;;;5.60;99.90;;;;;;5023337;28;20077;-67
2022/04/04 09:09:43;;;;;;;7.47;5.93;;;5.60;99.90;;;;;;5004432;28;20068;-67
2022/04/04 09:12:15;;;;;;;10.05;5.88;;;5.70;99.90;;;;;;5006973;28;20501;-66
2022/04/04 09:14:44;;;;;;;9.32;5.88;;;5.70;99.90;;;;;;5007065;28;20049;-66
2022/04/04 09:17:12;;;;;;;7.13;4.28;;;5.70;99.90;;;;;;4998401;28;20115;-67
2022/04/04 09:19:38;;;;;;;8.02;3.70;;;5.60;99.90;;;;;;5025004;28;20116;-67
2022/04/04 09:22:16;;;;;;;4.53;3.50;;;5.70;99.90;;;;;;5025833;28;20099;-67
2022/04/04 09:24:52;;;;;;;6.35;3.17;;;5.70;99.90;;;;;;5009458;28;20434;-68
2022/04/04 09:27:21;;;;;;;7.35;3.67;;;5.70;99.90;;;;;;5030484;28;20033;-67
2022/04/04 09:29:52;;;;;;;5.10;3.28;;;5.70;99.90;;;;;;5013356;28;20184;-67
2022/04/04 09:32:18;;;;;;;5.88;3.03;;;5.70;99.90;;;;;;5026649;28;20045;-66
2022/04/04 09:35:02;;;;;;;6.03;3.00;;;5.70;99.90;;;;;;5004111;28;20047;-66
2022/04/04 09:37:33;;;;;;;5.65;3.70;;;5.70;99.90;;;;;;5016594;28;20374;-67
2022/04/04 09:40:08;;;;;;;8.45;3.85;;;5.70;99.90;;;;;;5021622;28;20045;-66
2022/04/04 09:42:34;;;;;;;5.63;3.95;;;5.80;99.90;;;;;;5023483;28;20134;-67
2022/04/04 09:45:06;;;;;;;7.63;4.20;;;5.80;99.90;;;;;;5022738;28;20053;-67
2022/04/04 09:47:58;;;;;;;7.10;4.28;;;5.80;99.90;;;;;;5023716;28;20034;-66
2022/04/04 09:50:47;;;;;;;7.88;3.97;;;5.80;99.90;;;;;;5003330;28;20041;-67
2022/04/04 09:53:19;;;;;;;9.50;4.47;;;5.80;99.90;;;;;;5022905;28;20042;-66
2022/04/04 09:55:52;;;;;;;6.43;3.97;;;5.80;99.90;;;;;;5024974;28;20539;-67
2022/04/04 09:58:19;;;;;;;6.63;4.00;;;5.80;99.90;;;;;;5024745;28;20061;-67
2022/04/04 10:00:46;;;;;;;4.18;3.08;;;5.80;99.90;;;;;;5024259;28;20041;-66
2022/04/04 10:03:13;;;;;;;5.32;3.90;;;5.90;99.90;;;;;;5003120;28;20451;-66
2022/04/04 10:05:44;;;;;;;6.30;3.80;;;5.80;99.90;;;;;;5024415;28;20052;-67
2022/04/04 10:08:17;;;;;;;4.97;3.17;;;5.90;99.90;;;;;;5021163;28;20628;-66
2022/04/04 10:10:44;;;;;;;5.13;3.35;;;6.00;99.90;;;;;;5025480;28;20063;-66
2022/04/04 10:13:14;;;;;;;4.82;2.65;;;6.00;99.90;;;;;;5011638;28;20030;-66
2022/04/04 10:15:40;;;;;;;3.80;2.65;;;6.00;99.90;;;;;;5017187;28;20029;-66
2022/04/04 10:18:06;;;;;;;4.80;2.85;;;6.00;99.90;;;;;;5020716;28;20034;-66
2022/04/04 10:20:33;;;;;;;4.25;2.90;;;6.00;99.90;;;;;;5016645;28;20098;-66
2022/04/04 10:22:59;;;;;;;4.68;3.10;;;6.00;99.90;;;;;;5011010;28;20126;-66
2022/04/04 10:25:28;;;;;;;5.15;3.13;;;6.00;99.90;;;;;;4999383;28;20034;-66
2022/04/04 10:27:55;;;;;;;4.63;2.95;;;6.00;99.90;;;;;;5000309;28;20050;-66
2022/04/04 10:30:41;;;;;;;4.88;3.00;;;6.00;99.90;;;;;;5023568;28;20056;-67
2022/04/04 10:33:23;;;;;;;7.22;3.35;;;6.00;99.90;;;;;;5020355;28;20092;-66
2022/04/04 10:36:10;;;;;;;4.47;2.55;;;6.00;99.90;;;;;;5019744;28;20160;-66
2022/04/04 10:38:47;;;;;;;4.45;2.83;;;6.10;99.90;;;;;;5007373;28;20060;-67
2022/04/04 10:41:19;;;;;;;4.28;2.90;;;6.10;99.90;;;;;;5015693;28;20100;-66
2022/04/04 10:43:47;;;;;;;5.18;3.30;;;6.20;99.90;;;;;;5024733;28;20139;-66
2022/04/04 10:46:15;;;;;;;5.82;2.83;;;6.20;99.90;;;;;;5023926;28;20050;-66
2022/04/04 10:48:46;;;;;;;7.30;3.85;;;6.20;99.90;;;;;;5022951;28;20658;-66
2022/04/04 10:51:25;;;;;;;7.75;3.25;;;6.20;99.90;;;;;;5022858;28;20100;-66
2022/04/04 10:53:57;;;;;;;5.80;3.25;;;6.20;99.90;;;;;;5021529;28;20393;-66
2022/04/04 10:56:58;;;;;;;7.90;3.25;;;6.20;99.90;;;;;;5002796;28;20056;-66
2022/04/04 10:59:25;;;;;;;4.40;3.08;;;6.30;99.90;;;;;;5014141;28;20037;-66
2022/04/04 11:01:58;;;;;;;5.85;3.50;;;6.30;99.90;;;;;;5001523;28;20050;-66
2022/04/04 11:04:30;;;;;;;3.92;2.80;;;6.30;99.90;;;;;;5004907;28;20060;-66
2022/04/04 11:10:06;;;;;;;4.97;2.83;;;6.40;99.90;;;;;;5023281;28;20048;-65
2022/04/04 11:12:55;;;;;;;4.03;2.65;;;6.50;99.90;;;;;;5019996;28;20549;-66
2022/04/04 11:15:42;;;;;;;6.95;2.97;;;6.50;99.90;;;;;;5013380;28;20297;-66
2022/04/04 11:18:08;;;;;;;5.75;2.50;;;6.60;99.90;;;;;;5021223;28;20465;-66
2022/04/04 11:20:34;;;;;;;4.25;3.08;;;6.70;99.90;;;;;;5019464;28;20401;-67
2022/04/04 11:23:04;;;;;;;4.60;2.35;;;6.70;99.90;;;;;;5021460;28;20041;-67
2022/04/04 11:25:37;;;;;;;4.93;2.67;;;6.60;99.90;;;;;;5019355;28;20037;-67
2022/04/04 11:28:07;;;;;;;3.15;2.08;;;6.70;99.90;;;;;;5021347;28;20132;-67
2022/04/04 11:30:33;;;;;;;2.88;2.33;;;6.70;99.90;;;;;;5012846;28;20049;-67
2022/04/04 11:33:05;;;;;;;4.90;2.60;;;6.80;99.90;;;;;;5005388;28;20152;-67
2022/04/04 11:35:31;;;;;;;4.65;1.90;;;6.80;99.90;;;;;;5019778;28;20115;-66
2022/04/04 11:38:11;;;;;;;2.42;1.60;;;6.90;99.90;;;;;;5018839;28;20033;-66
2022/04/04 11:40:39;;;;;;;2.65;1.77;;;7.00;99.90;;;;;;5017102;28;20033;-66
2022/04/04 11:43:13;;;;;;;2.28;1.75;;;7.00;99.90;;;;;;5004772;28;20049;-67
2022/04/04 11:45:41;;;;;;;3.13;1.70;;;7.00;99.90;;;;;;5021268;28;20064;-66
2022/04/04 11:48:14;;;;;;;2.70;1.58;;;7.00;99.90;;;;;;5022962;28;20069;-66
2022/04/04 11:50:42;;;;;;;1.45;1.30;;;7.00;99.90;;;;;;5024465;28;20050;-67
2022/04/04 11:53:13;;;;;;;2.55;1.10;;;7.10;99.90;;;;;;5020925;28;20030;-66
2022/04/04 11:55:41;;;;;;;2.72;1.27;;;7.10;99.90;;;;;;5018911;28;20737;-67
2022/04/04 11:58:12;;;;;;;4.10;1.42;;;7.10;99.90;;;;;;5021217;28;20140;-65
2022/04/04 12:00:53;;;;;;;2.55;0.90;;;7.10;99.90;;;;;;5021964;28;20626;-65
2022/04/04 12:03:20;;;;;;;2.53;1.10;;;7.20;99.90;;;;;;5017896;28;20486;-64
2022/04/04 12:05:50;;;;;;;3.90;0.88;;;7.20;99.90;;;;;;5020074;28;20060;-65
2022/04/04 12:08:18;;;;;;;2.28;1.05;;;7.30;99.90;;;;;;5017333;28;20092;-66
2022/04/04 12:10:46;;;;;;;2.80;0.88;;;7.40;99.90;;;;;;5024382;28;20382;-65
2022/04/04 12:13:21;;;;;;;2.17;0.60;;;7.40;99.90;;;;;;5004421;28;20042;-66
2022/04/04 12:15:48;;;;;;;;;;;7.30;99.90;;;;;;5019877;28;20153;-66
2022/04/04 12:18:24;;;;;;;3.15;0.80;;;7.30;99.90;;;;;;5022354;28;19925;-66
2022/04/04 12:20:54;;;;;;;1.73;1.17;;;7.40;99.90;;;;;;5019677;28;20049;-65
2022/04/04 12:26:14;;;;;;;0.95;0.52;;;7.50;99.90;;;;;;5026702;28;20069;-66
2022/04/04 12:28:49;;;;;;;1.77;0.60;;;7.50;99.90;;;;;;5023292;28;20037;-65
2022/04/04 12:31:19;;;;;;;0.80;0.60;;;7.50;99.90;;;;;;5024360;28;20029;-65
2022/04/04 12:34:02;;;;;;;2.53;0.77;;;7.60;99.90;;;;;;5020706;28;20052;-66
2022/04/04 12:36:35;;;;;;;1.85;0.52;;;7.60;99.90;;;;;;5022397;28;20025;-65
2022/04/04 12:39:01;;;;;;;2.72;0.82;;;7.60;99.90;;;;;;5008189;28;20049;-65
2022/04/04 12:41:27;;;;;;;2.58;0.55;;;7.60;99.90;;;;;;5025488;28;20041;-65
2022/04/04 12:44:04;;;;;;;0.68;0.50;;;7.60;99.90;;;;;;5026327;28;20527;-66
2022/04/04 12:46:32;;;;;;;1.10;0.40;;;7.60;99.90;;;;;;5007980;28;20485;-66
2022/04/04 12:49:11;;;;;;;1.45;0.40;;;7.60;99.90;;;;;;5026068;28;20091;-65
2022/04/04 12:51:38;;;;;;;1.20;0.55;;;7.60;99.90;;;;;;5025263;28;20041;-66
2022/04/04 12:54:04;;;;;;;1.20;0.60;;;7.70;99.90;;;;;;5026888;28;20041;-65
2022/04/04 12:56:32;;;;;;;1.35;0.80;;;7.80;99.90;;;;;;5022224;28;20056;-65
2022/04/04 12:59:08;;;;;;;0.93;0.30;;;7.80;99.90;;;;;;5022437;28;20445;-65